sensor_id;sensor_type;location;lat;lon;timestamp;pressure;altitude;pressure_sealevel;temperature;humidity
16806;BME280;8520;50.102;20.010;2023-03-23T00:00:59;97789.53;;;13.95;61.30
16806;BME280;8520;50.102;20.010;2023-03-23T00:03:27;97783.63;;;13.69;61.61
16806;BME280;8520;50.102;20.010;2023-03-23T00:05:57;97785.28;;;13.89;61.46
16806;BME280;8520;50.102;20.010;2023-03-23T00:08:30;97784.97;;;13.98;61.18
16806;BME280;8520;50.102;20.010;2023-03-23T00:10:58;97788.34;;;14.21;60.52
16806;BME280;8520;50.102;20.010;2023-03-23T00:13:28;97781.53;;;13.80;61.24
16806;BME280;8520;50.102;20.010;2023-03-23T00:15:56;97784.00;;;13.90;61.38
16806;BME280;8520;50.102;20.010;2023-03-23T00:18:26;97779.19;;;13.55;62.02
16806;BME280;8520;50.102;20.010;2023-03-23T00:20:54;97786.19;;;13.61;61.95
16806;BME280;8520;50.102;20.010;2023-03-23T00:23:24;97778.00;;;13.33;62.30
16806;BME280;8520;50.102;20.010;2023-03-23T00:25:52;97782.91;;;13.63;61.79
16806;BME280;8520;50.102;20.010;2023-03-23T00:28:25;97784.47;;;13.58;61.71
16806;BME280;8520;50.102;20.010;2023-03-23T00:30:56;97780.56;;;13.78;61.36
16806;BME280;8520;50.102;20.010;2023-03-23T00:33:24;97779.41;;;13.98;61.09
16806;BME280;8520;50.102;20.010;2023-03-23T00:35:53;97778.66;;;13.97;61.03
16806;BME280;8520;50.102;20.010;2023-03-23T00:38:20;97776.91;;;14.00;60.88
16806;BME280;8520;50.102;20.010;2023-03-23T00:40:47;97772.22;;;14.19;60.40
16806;BME280;8520;50.102;20.010;2023-03-23T00:43:15;97778.41;;;14.01;60.74
16806;BME280;8520;50.102;20.010;2023-03-23T00:45:44;97769.69;;;14.16;60.45
16806;BME280;8520;50.102;20.010;2023-03-23T00:48:18;97767.72;;;13.75;61.22
16806;BME280;8520;50.102;20.010;2023-03-23T00:50:45;97768.28;;;13.62;61.68
16806;BME280;8520;50.102;20.010;2023-03-23T00:53:12;97768.81;;;13.61;61.65
16806;BME280;8520;50.102;20.010;2023-03-23T00:55:41;97769.03;;;13.63;61.56
16806;BME280;8520;50.102;20.010;2023-03-23T00:58:08;97764.75;;;13.67;61.72
16806;BME280;8520;50.102;20.010;2023-03-23T01:00:37;97765.09;;;13.94;60.70
16806;BME280;8520;50.102;20.010;2023-03-23T01:03:06;97759.34;;;13.86;61.10
16806;BME280;8520;50.102;20.010;2023-03-23T01:05:34;97758.72;;;13.99;60.68
16806;BME280;8520;50.102;20.010;2023-03-23T01:08:02;97758.38;;;13.78;61.33
16806;BME280;8520;50.102;20.010;2023-03-23T01:10:30;97759.00;;;13.60;61.84
16806;BME280;8520;50.102;20.010;2023-03-23T01:12:58;97754.38;;;13.73;61.57
16806;BME280;8520;50.102;20.010;2023-03-23T01:15:27;97761.81;;;13.54;62.02
16806;BME280;8520;50.102;20.010;2023-03-23T01:17:54;97762.03;;;13.56;61.75
16806;BME280;8520;50.102;20.010;2023-03-23T01:20:24;97752.94;;;13.61;61.62
16806;BME280;8520;50.102;20.010;2023-03-23T01:22:52;97757.78;;;13.55;61.99
16806;BME280;8520;50.102;20.010;2023-03-23T01:25:26;97758.31;;;13.48;62.00
16806;BME280;8520;50.102;20.010;2023-03-23T01:27:54;97763.00;;;13.06;62.94
16806;BME280;8520;50.102;20.010;2023-03-23T01:30:21;97759.63;;;13.30;62.69
16806;BME280;8520;50.102;20.010;2023-03-23T01:32:48;97755.13;;;13.27;62.67
16806;BME280;8520;50.102;20.010;2023-03-23T01:35:16;97749.13;;;13.12;62.94
16806;BME280;8520;50.102;20.010;2023-03-23T01:37:45;97747.28;;;13.31;62.99
16806;BME280;8520;50.102;20.010;2023-03-23T01:40:14;97747.81;;;13.24;62.85
16806;BME280;8520;50.102;20.010;2023-03-23T01:42:42;97752.06;;;13.25;62.85
16806;BME280;8520;50.102;20.010;2023-03-23T01:45:24;97754.94;;;13.03;63.20
16806;BME280;8520;50.102;20.010;2023-03-23T01:47:56;97745.84;;;13.13;63.43
16806;BME280;8520;50.102;20.010;2023-03-23T01:50:28;97757.31;;;13.40;62.52
16806;BME280;8520;50.102;20.010;2023-03-23T01:52:59;97760.47;;;13.08;62.81
16806;BME280;8520;50.102;20.010;2023-03-23T01:55:28;97760.63;;;13.33;62.18
16806;BME280;8520;50.102;20.010;2023-03-23T01:57:56;97764.06;;;12.92;63.65
16806;BME280;8520;50.102;20.010;2023-03-23T02:00:24;97759.50;;;13.00;63.27
16806;BME280;8520;50.102;20.010;2023-03-23T02:02:54;97760.22;;;13.12;62.87
16806;BME280;8520;50.102;20.010;2023-03-23T02:05:28;97748.59;;;13.19;63.11
16806;BME280;8520;50.102;20.010;2023-03-23T02:08:03;97745.94;;;13.55;61.88
16806;BME280;8520;50.102;20.010;2023-03-23T02:10:35;97752.38;;;13.16;63.04
16806;BME280;8520;50.102;20.010;2023-03-23T02:13:04;97747.28;;;13.31;62.57
16806;BME280;8520;50.102;20.010;2023-03-23T02:15:41;97756.63;;;13.28;62.79
16806;BME280;8520;50.102;20.010;2023-03-23T02:18:20;97756.31;;;13.37;62.76
16806;BME280;8520;50.102;20.010;2023-03-23T02:21:15;97753.44;;;13.65;62.16
16806;BME280;8520;50.102;20.010;2023-03-23T02:24:31;97750.59;;;13.71;61.96
16806;BME280;8520;50.102;20.010;2023-03-23T02:27:08;97754.72;;;13.53;62.14
16806;BME280;8520;50.102;20.010;2023-03-23T02:29:46;97746.47;;;13.47;62.52
16806;BME280;8520;50.102;20.010;2023-03-23T02:32:36;97751.13;;;13.69;61.88
16806;BME280;8520;50.102;20.010;2023-03-23T02:35:11;97748.72;;;12.85;63.76
16806;BME280;8520;50.102;20.010;2023-03-23T02:37:42;97752.00;;;13.42;62.76
16806;BME280;8520;50.102;20.010;2023-03-23T02:40:17;97747.44;;;13.50;62.55
16806;BME280;8520;50.102;20.010;2023-03-23T02:42:49;97751.88;;;13.17;63.10
16806;BME280;8520;50.102;20.010;2023-03-23T02:45:20;97754.88;;;13.19;63.23
16806;BME280;8520;50.102;20.010;2023-03-23T02:47:52;97744.91;;;13.52;62.44
16806;BME280;8520;50.102;20.010;2023-03-23T02:50:23;97748.03;;;13.32;62.71
16806;BME280;8520;50.102;20.010;2023-03-23T02:52:52;97743.88;;;13.08;63.52
16806;BME280;8520;50.102;20.010;2023-03-23T02:55:21;97747.44;;;13.44;62.60
16806;BME280;8520;50.102;20.010;2023-03-23T02:57:52;97740.53;;;13.21;62.82
16806;BME280;8520;50.102;20.010;2023-03-23T03:00:19;97745.06;;;13.18;63.07
16806;BME280;8520;50.102;20.010;2023-03-23T03:02:49;97740.69;;;13.40;62.60
16806;BME280;8520;50.102;20.010;2023-03-23T03:05:28;97738.19;;;13.36;63.27
16806;BME280;8520;50.102;20.010;2023-03-23T03:08:12;97730.88;;;13.33;62.85
16806;BME280;8520;50.102;20.010;2023-03-23T03:10:48;97731.84;;;13.47;62.62
16806;BME280;8520;50.102;20.010;2023-03-23T03:13:25;97728.16;;;13.28;63.46
16806;BME280;8520;50.102;20.010;2023-03-23T03:16:02;97727.22;;;13.61;62.20
16806;BME280;8520;50.102;20.010;2023-03-23T03:18:37;97725.50;;;13.58;62.10
16806;BME280;8520;50.102;20.010;2023-03-23T03:21:12;97721.75;;;13.44;62.39
16806;BME280;8520;50.102;20.010;2023-03-23T03:23:43;97731.09;;;13.46;62.50
16806;BME280;8520;50.102;20.010;2023-03-23T03:26:12;97725.41;;;13.69;62.04
16806;BME280;8520;50.102;20.010;2023-03-23T03:28:54;97719.97;;;13.00;63.74
16806;BME280;8520;50.102;20.010;2023-03-23T03:31:26;97728.38;;;12.60;64.95
16806;BME280;8520;50.102;20.010;2023-03-23T03:33:54;97730.81;;;12.92;64.38
16806;BME280;8520;50.102;20.010;2023-03-23T03:36:27;97726.84;;;12.76;64.68
16806;BME280;8520;50.102;20.010;2023-03-23T03:39:03;97722.84;;;12.66;65.07
16806;BME280;8520;50.102;20.010;2023-03-23T03:41:33;97723.34;;;12.64;64.85
16806;BME280;8520;50.102;20.010;2023-03-23T03:44:01;97729.41;;;12.57;64.83
16806;BME280;8520;50.102;20.010;2023-03-23T03:46:28;97716.75;;;12.84;64.36
16806;BME280;8520;50.102;20.010;2023-03-23T03:48:57;97720.28;;;12.79;64.80
16806;BME280;8520;50.102;20.010;2023-03-23T03:51:26;97721.63;;;12.56;65.35
16806;BME280;8520;50.102;20.010;2023-03-23T03:53:54;97722.59;;;12.64;65.31
16806;BME280;8520;50.102;20.010;2023-03-23T03:56:23;97716.75;;;12.79;64.82
16806;BME280;8520;50.102;20.010;2023-03-23T03:59:03;97720.16;;;12.27;66.18
16806;BME280;8520;50.102;20.010;2023-03-23T04:02:00;97719.59;;;12.51;65.44
16806;BME280;8520;50.102;20.010;2023-03-23T04:04:28;97716.88;;;12.45;65.99
16806;BME280;8520;50.102;20.010;2023-03-23T04:06:56;97712.84;;;12.24;66.53
16806;BME280;8520;50.102;20.010;2023-03-23T04:09:24;97713.09;;;12.31;66.17
16806;BME280;8520;50.102;20.010;2023-03-23T04:11:52;97719.31;;;12.65;65.30
16806;BME280;8520;50.102;20.010;2023-03-23T04:14:40;97712.72;;;12.85;64.81
16806;BME280;8520;50.102;20.010;2023-03-23T04:17:08;97708.38;;;12.95;64.49
16806;BME280;8520;50.102;20.010;2023-03-23T04:19:37;97721.06;;;12.74;64.82
16806;BME280;8520;50.102;20.010;2023-03-23T04:22:06;97714.78;;;12.68;64.95
16806;BME280;8520;50.102;20.010;2023-03-23T04:24:35;97710.81;;;12.41;65.34
16806;BME280;8520;50.102;20.010;2023-03-23T04:27:06;97717.25;;;12.83;64.63
16806;BME280;8520;50.102;20.010;2023-03-23T04:29:34;97709.41;;;12.92;63.91
16806;BME280;8520;50.102;20.010;2023-03-23T04:32:33;97711.41;;;12.98;63.80
16806;BME280;8520;50.102;20.010;2023-03-23T04:35:01;97712.81;;;13.21;63.10
16806;BME280;8520;50.102;20.010;2023-03-23T04:37:38;97712.41;;;13.00;63.49
16806;BME280;8520;50.102;20.010;2023-03-23T04:40:08;97716.66;;;13.07;63.33
16806;BME280;8520;50.102;20.010;2023-03-23T04:42:39;97710.41;;;13.01;63.59
16806;BME280;8520;50.102;20.010;2023-03-23T04:45:30;97722.34;;;13.31;62.88
16806;BME280;8520;50.102;20.010;2023-03-23T04:48:00;97722.13;;;13.23;63.14
16806;BME280;8520;50.102;20.010;2023-03-23T04:50:38;97724.13;;;13.23;63.15
16806;BME280;8520;50.102;20.010;2023-03-23T04:53:17;97718.56;;;13.29;62.69
16806;BME280;8520;50.102;20.010;2023-03-23T04:55:46;97719.28;;;13.35;62.59
16806;BME280;8520;50.102;20.010;2023-03-23T04:58:16;97720.53;;;13.39;62.73
16806;BME280;8520;50.102;20.010;2023-03-23T05:00:53;97720.38;;;13.20;62.93
16806;BME280;8520;50.102;20.010;2023-03-23T05:03:22;97724.94;;;13.12;63.20
16806;BME280;8520;50.102;20.010;2023-03-23T05:05:53;97719.13;;;13.16;63.58
16806;BME280;8520;50.102;20.010;2023-03-23T05:08:23;97724.25;;;12.95;63.75
16806;BME280;8520;50.102;20.010;2023-03-23T05:10:52;97725.13;;;13.26;62.90
16806;BME280;8520;50.102;20.010;2023-03-23T05:13:21;97727.06;;;13.42;62.80
16806;BME280;8520;50.102;20.010;2023-03-23T05:15:51;97727.13;;;13.31;62.63
16806;BME280;8520;50.102;20.010;2023-03-23T05:18:18;97724.53;;;12.86;63.92
16806;BME280;8520;50.102;20.010;2023-03-23T05:20:46;97732.97;;;13.16;63.34
16806;BME280;8520;50.102;20.010;2023-03-23T05:23:18;97731.22;;;13.18;63.38
16806;BME280;8520;50.102;20.010;2023-03-23T05:25:53;97721.66;;;13.19;63.44
16806;BME280;8520;50.102;20.010;2023-03-23T05:28:21;97731.41;;;13.26;62.89
16806;BME280;8520;50.102;20.010;2023-03-23T05:30:52;97738.22;;;13.25;63.34
16806;BME280;8520;50.102;20.010;2023-03-23T05:33:23;97724.94;;;13.12;63.48
16806;BME280;8520;50.102;20.010;2023-03-23T05:35:55;97726.53;;;13.49;62.34
16806;BME280;8520;50.102;20.010;2023-03-23T05:38:27;97721.94;;;13.10;63.10
16806;BME280;8520;50.102;20.010;2023-03-23T05:40:59;97723.03;;;13.43;62.55
16806;BME280;8520;50.102;20.010;2023-03-23T05:43:32;97720.19;;;13.60;62.16
16806;BME280;8520;50.102;20.010;2023-03-23T05:46:19;97720.53;;;13.80;61.80
16806;BME280;8520;50.102;20.010;2023-03-23T05:48:47;97725.63;;;13.76;61.91
16806;BME280;8520;50.102;20.010;2023-03-23T05:51:17;97727.63;;;14.12;61.13
16806;BME280;8520;50.102;20.010;2023-03-23T05:53:45;97727.09;;;14.13;60.76
16806;BME280;8520;50.102;20.010;2023-03-23T05:56:16;97721.88;;;14.04;60.78
16806;BME280;8520;50.102;20.010;2023-03-23T05:59:01;97733.53;;;13.97;61.03
16806;BME280;8520;50.102;20.010;2023-03-23T06:01:30;97737.56;;;13.60;61.88
16806;BME280;8520;50.102;20.010;2023-03-23T06:03:58;97741.72;;;13.37;62.64
16806;BME280;8520;50.102;20.010;2023-03-23T06:06:37;97741.19;;;13.38;62.44
16806;BME280;8520;50.102;20.010;2023-03-23T06:09:08;97738.31;;;13.96;61.63
16806;BME280;8520;50.102;20.010;2023-03-23T06:12:01;97728.81;;;14.46;60.35
16806;BME280;8520;50.102;20.010;2023-03-23T06:14:44;97719.75;;;14.70;59.28
16806;BME280;8520;50.102;20.010;2023-03-23T06:17:13;97726.16;;;14.59;59.85
16806;BME280;8520;50.102;20.010;2023-03-23T06:19:41;97725.59;;;14.67;59.23
16806;BME280;8520;50.102;20.010;2023-03-23T06:22:13;97719.03;;;14.88;59.30
16806;BME280;8520;50.102;20.010;2023-03-23T06:25:10;97717.78;;;15.08;58.89
16806;BME280;8520;50.102;20.010;2023-03-23T06:27:42;97715.63;;;15.01;58.68
16806;BME280;8520;50.102;20.010;2023-03-23T06:30:12;97715.69;;;15.14;59.11
16806;BME280;8520;50.102;20.010;2023-03-23T06:32:41;97719.22;;;15.53;58.24
16806;BME280;8520;50.102;20.010;2023-03-23T06:35:12;97722.19;;;15.41;58.37
16806;BME280;8520;50.102;20.010;2023-03-23T06:38:11;97719.69;;;15.75;57.19
16806;BME280;8520;50.102;20.010;2023-03-23T06:40:54;97722.09;;;15.47;57.28
16806;BME280;8520;50.102;20.010;2023-03-23T06:43:25;97721.72;;;15.56;58.50
16806;BME280;8520;50.102;20.010;2023-03-23T06:46:05;97716.69;;;15.73;57.03
16806;BME280;8520;50.102;20.010;2023-03-23T06:48:41;97715.78;;;15.84;57.17
16806;BME280;8520;50.102;20.010;2023-03-23T06:51:12;97719.38;;;15.79;57.37
16806;BME280;8520;50.102;20.010;2023-03-23T06:53:44;97715.94;;;16.05;56.63
16806;BME280;8520;50.102;20.010;2023-03-23T06:56:12;97719.88;;;15.96;56.77
16806;BME280;8520;50.102;20.010;2023-03-23T06:58:42;97720.34;;;16.14;56.69
16806;BME280;8520;50.102;20.010;2023-03-23T07:01:12;97719.34;;;16.43;56.13
16806;BME280;8520;50.102;20.010;2023-03-23T07:03:50;97722.44;;;15.94;56.66
16806;BME280;8520;50.102;20.010;2023-03-23T07:06:27;97724.34;;;15.67;57.61
16806;BME280;8520;50.102;20.010;2023-03-23T07:08:58;97730.91;;;15.70;57.86
16806;BME280;8520;50.102;20.010;2023-03-23T07:11:27;97731.34;;;16.06;57.52
16806;BME280;8520;50.102;20.010;2023-03-23T07:14:00;97726.66;;;16.01;57.12
16806;BME280;8520;50.102;20.010;2023-03-23T07:16:27;97723.69;;;16.25;56.84
16806;BME280;8520;50.102;20.010;2023-03-23T07:18:54;97724.25;;;16.37;56.49
16806;BME280;8520;50.102;20.010;2023-03-23T07:21:21;97720.81;;;16.31;57.01
16806;BME280;8520;50.102;20.010;2023-03-23T07:23:49;97715.22;;;16.76;56.19
16806;BME280;8520;50.102;20.010;2023-03-23T07:26:34;97714.56;;;16.70;55.98
16806;BME280;8520;50.102;20.010;2023-03-23T07:29:03;97713.22;;;16.45;56.39
16806;BME280;8520;50.102;20.010;2023-03-23T07:31:35;97734.78;;;15.80;57.35
16806;BME280;8520;50.102;20.010;2023-03-23T07:34:03;97724.47;;;16.39;56.24
16806;BME280;8520;50.102;20.010;2023-03-23T07:36:48;97723.19;;;16.53;56.41
16806;BME280;8520;50.102;20.010;2023-03-23T07:39:16;97720.78;;;16.76;55.97
16806;BME280;8520;50.102;20.010;2023-03-23T07:41:44;97715.31;;;16.97;55.26
16806;BME280;8520;50.102;20.010;2023-03-23T07:44:20;97719.59;;;17.11;55.19
16806;BME280;8520;50.102;20.010;2023-03-23T07:46:50;97721.00;;;16.91;55.37
16806;BME280;8520;50.102;20.010;2023-03-23T07:49:27;97725.81;;;17.04;55.22
16806;BME280;8520;50.102;20.010;2023-03-23T07:52:06;97730.31;;;17.07;55.01
16806;BME280;8520;50.102;20.010;2023-03-23T07:54:36;97732.47;;;16.88;55.45
16806;BME280;8520;50.102;20.010;2023-03-23T07:57:08;97730.38;;;17.28;54.83
16806;BME280;8520;50.102;20.010;2023-03-23T07:59:41;97723.34;;;17.61;54.08
16806;BME280;8520;50.102;20.010;2023-03-23T08:02:09;97732.94;;;17.87;53.69
16806;BME280;8520;50.102;20.010;2023-03-23T08:04:50;97730.69;;;17.85;53.43
16806;BME280;8520;50.102;20.010;2023-03-23T08:07:22;97724.84;;;17.96;53.38
16806;BME280;8520;50.102;20.010;2023-03-23T08:10:09;97723.00;;;17.99;52.46
16806;BME280;8520;50.102;20.010;2023-03-23T08:13:00;97732.00;;;18.05;52.65
16806;BME280;8520;50.102;20.010;2023-03-23T08:15:49;97719.09;;;18.44;51.88
16806;BME280;8520;50.102;20.010;2023-03-23T08:18:39;97729.19;;;17.84;51.74
16806;BME280;8520;50.102;20.010;2023-03-23T08:21:16;97727.88;;;18.48;50.73
16806;BME280;8520;50.102;20.010;2023-03-23T08:24:01;97732.59;;;17.90;51.19
16806;BME280;8520;50.102;20.010;2023-03-23T08:26:49;97744.47;;;17.23;52.22
16806;BME280;8520;50.102;20.010;2023-03-23T08:29:18;97735.84;;;17.47;52.28
16806;BME280;8520;50.102;20.010;2023-03-23T08:32:05;97748.03;;;17.57;51.78
16806;BME280;8520;50.102;20.010;2023-03-23T08:34:55;97733.97;;;17.02;52.55
16806;BME280;8520;50.102;20.010;2023-03-23T08:37:23;97739.72;;;17.31;52.52
16806;BME280;8520;50.102;20.010;2023-03-23T08:39:51;97740.03;;;18.29;51.03
16806;BME280;8520;50.102;20.010;2023-03-23T08:42:57;97740.88;;;17.35;52.21
16806;BME280;8520;50.102;20.010;2023-03-23T08:45:27;97734.69;;;17.63;51.63
16806;BME280;8520;50.102;20.010;2023-03-23T08:48:32;97730.91;;;17.87;51.64
16806;BME280;8520;50.102;20.010;2023-03-23T08:51:19;97723.41;;;18.03;51.09
16806;BME280;8520;50.102;20.010;2023-03-23T08:54:08;97729.06;;;18.11;50.95
16806;BME280;8520;50.102;20.010;2023-03-23T08:57:07;97727.03;;;18.32;50.05
16806;BME280;8520;50.102;20.010;2023-03-23T08:59:53;97726.22;;;18.73;49.59
16806;BME280;8520;50.102;20.010;2023-03-23T09:02:50;97735.59;;;17.92;50.30
16806;BME280;8520;50.102;20.010;2023-03-23T09:05:24;97737.22;;;18.50;49.51
16806;BME280;8520;50.102;20.010;2023-03-23T09:08:03;97730.56;;;18.12;49.74
16806;BME280;8520;50.102;20.010;2023-03-23T09:10:30;97739.16;;;17.93;50.12
16806;BME280;8520;50.102;20.010;2023-03-23T09:12:57;97730.97;;;18.16;49.88
16806;BME280;8520;50.102;20.010;2023-03-23T09:15:24;97732.25;;;18.15;49.60
16806;BME280;8520;50.102;20.010;2023-03-23T09:17:52;97736.41;;;18.63;48.96
16806;BME280;8520;50.102;20.010;2023-03-23T09:20:21;97734.78;;;18.26;49.30
16806;BME280;8520;50.102;20.010;2023-03-23T09:22:51;97730.47;;;18.95;48.09
16806;BME280;8520;50.102;20.010;2023-03-23T09:25:21;97738.72;;;18.51;48.52
16806;BME280;8520;50.102;20.010;2023-03-23T09:27:49;97733.28;;;18.67;48.61
16806;BME280;8520;50.102;20.010;2023-03-23T09:30:18;97738.34;;;18.55;48.28
16806;BME280;8520;50.102;20.010;2023-03-23T09:32:46;97738.91;;;18.53;48.80
16806;BME280;8520;50.102;20.010;2023-03-23T09:35:15;97731.31;;;18.82;47.79
16806;BME280;8520;50.102;20.010;2023-03-23T09:37:44;97731.78;;;19.02;47.40
16806;BME280;8520;50.102;20.010;2023-03-23T09:40:14;97728.38;;;18.59;48.25
16806;BME280;8520;50.102;20.010;2023-03-23T09:43:13;97721.84;;;18.93;47.49
16806;BME280;8520;50.102;20.010;2023-03-23T09:45:51;97713.81;;;19.26;47.72
16806;BME280;8520;50.102;20.010;2023-03-23T09:48:38;97719.13;;;19.44;47.38
16806;BME280;8520;50.102;20.010;2023-03-23T09:51:20;97707.94;;;19.44;46.76
16806;BME280;8520;50.102;20.010;2023-03-23T09:53:52;97706.63;;;19.45;46.49
16806;BME280;8520;50.102;20.010;2023-03-23T09:56:23;97716.84;;;20.10;45.73
16806;BME280;8520;50.102;20.010;2023-03-23T09:58:56;97710.25;;;19.61;46.29
16806;BME280;8520;50.102;20.010;2023-03-23T10:01:28;97703.13;;;19.53;45.95
16806;BME280;8520;50.102;20.010;2023-03-23T10:04:02;97703.19;;;19.68;46.04
16806;BME280;8520;50.102;20.010;2023-03-23T10:06:30;97705.22;;;19.75;45.89
16806;BME280;8520;50.102;20.010;2023-03-23T10:08:59;97694.28;;;20.15;45.33
16806;BME280;8520;50.102;20.010;2023-03-23T10:11:39;97691.28;;;20.59;44.86
16806;BME280;8520;50.102;20.010;2023-03-23T10:14:28;97695.97;;;20.34;44.64
16806;BME280;8520;50.102;20.010;2023-03-23T10:17:04;97686.06;;;20.33;44.40
16806;BME280;8520;50.102;20.010;2023-03-23T10:19:45;97678.56;;;20.20;44.60
16806;BME280;8520;50.102;20.010;2023-03-23T10:22:17;97689.03;;;19.96;44.79
16806;BME280;8520;50.102;20.010;2023-03-23T10:24:50;97689.03;;;19.96;44.93
16806;BME280;8520;50.102;20.010;2023-03-23T10:27:25;97688.44;;;20.67;44.15
16806;BME280;8520;50.102;20.010;2023-03-23T10:29:58;97677.06;;;20.57;43.71
16806;BME280;8520;50.102;20.010;2023-03-23T10:32:42;97674.09;;;20.24;43.67
16806;BME280;8520;50.102;20.010;2023-03-23T10:35:14;97672.63;;;20.31;43.88
16806;BME280;8520;50.102;20.010;2023-03-23T10:37:47;97674.41;;;19.60;43.79
16806;BME280;8520;50.102;20.010;2023-03-23T10:40:18;97672.78;;;19.87;43.78
16806;BME280;8520;50.102;20.010;2023-03-23T10:42:48;97666.78;;;19.83;43.16
16806;BME280;8520;50.102;20.010;2023-03-23T10:45:19;97674.00;;;19.48;43.37
16806;BME280;8520;50.102;20.010;2023-03-23T10:47:51;97675.03;;;19.30;43.20
16806;BME280;8520;50.102;20.010;2023-03-23T10:50:23;97653.13;;;19.64;43.06
16806;BME280;8520;50.102;20.010;2023-03-23T10:52:52;97652.25;;;20.23;42.95
16806;BME280;8520;50.102;20.010;2023-03-23T10:55:22;97657.47;;;20.19;42.86
16806;BME280;8520;50.102;20.010;2023-03-23T10:58:01;97658.63;;;20.31;42.81
16806;BME280;8520;50.102;20.010;2023-03-23T11:00:29;97650.75;;;20.14;42.62
16806;BME280;8520;50.102;20.010;2023-03-23T11:02:59;97644.78;;;19.21;42.72
16806;BME280;8520;50.102;20.010;2023-03-23T11:05:32;97658.09;;;19.35;42.25
16806;BME280;8520;50.102;20.010;2023-03-23T11:08:01;97665.13;;;19.80;41.60
16806;BME280;8520;50.102;20.010;2023-03-23T11:10:38;97642.13;;;19.51;41.88
16806;BME280;8520;50.102;20.010;2023-03-23T11:13:12;97636.72;;;20.60;41.37
16806;BME280;8520;50.102;20.010;2023-03-23T11:15:41;97626.50;;;20.95;40.41
16806;BME280;8520;50.102;20.010;2023-03-23T11:18:13;97632.00;;;20.70;40.77
16806;BME280;8520;50.102;20.010;2023-03-23T11:20:46;97635.63;;;19.79;41.81
16806;BME280;8520;50.102;20.010;2023-03-23T11:23:19;97638.63;;;19.96;41.62
16806;BME280;8520;50.102;20.010;2023-03-23T11:26:08;97630.94;;;20.43;41.51
16806;BME280;8520;50.102;20.010;2023-03-23T11:28:43;97642.34;;;20.07;41.83
16806;BME280;8520;50.102;20.010;2023-03-23T11:31:12;97638.03;;;19.83;42.07
16806;BME280;8520;50.102;20.010;2023-03-23T11:33:47;97625.94;;;19.95;42.00
16806;BME280;8520;50.102;20.010;2023-03-23T11:36:16;97625.09;;;20.64;41.28
16806;BME280;8520;50.102;20.010;2023-03-23T11:38:43;97636.31;;;20.64;40.71
16806;BME280;8520;50.102;20.010;2023-03-23T11:41:12;97622.78;;;21.33;40.40
16806;BME280;8520;50.102;20.010;2023-03-23T11:43:46;97603.94;;;21.26;40.05
16806;BME280;8520;50.102;20.010;2023-03-23T11:46:24;97620.38;;;21.62;40.05
16806;BME280;8520;50.102;20.010;2023-03-23T11:48:57;97619.44;;;21.59;39.93
16806;BME280;8520;50.102;20.010;2023-03-23T11:51:30;97635.09;;;20.04;41.10
16806;BME280;8520;50.102;20.010;2023-03-23T11:54:02;97628.53;;;19.78;41.58
16806;BME280;8520;50.102;20.010;2023-03-23T11:56:34;97608.91;;;20.39;41.23
16806;BME280;8520;50.102;20.010;2023-03-23T11:59:09;97622.94;;;20.32;41.35
16806;BME280;8520;50.102;20.010;2023-03-23T12:01:51;97590.06;;;20.40;40.99
16806;BME280;8520;50.102;20.010;2023-03-23T12:04:35;97623.13;;;19.88;41.50
16806;BME280;8520;50.102;20.010;2023-03-23T12:10:19;97629.28;;;19.79;42.11
16806;BME280;8520;50.102;20.010;2023-03-23T12:12:58;97617.88;;;19.69;42.17
16806;BME280;8520;50.102;20.010;2023-03-23T12:15:36;97618.81;;;19.49;42.49
16806;BME280;8520;50.102;20.010;2023-03-23T12:18:16;97622.41;;;19.21;42.92
16806;BME280;8520;50.102;20.010;2023-03-23T12:20:56;97628.81;;;19.36;42.84
16806;BME280;8520;50.102;20.010;2023-03-23T12:23:28;97649.78;;;19.51;42.71
16806;BME280;8520;50.102;20.010;2023-03-23T12:26:12;97624.69;;;19.37;43.28
16806;BME280;8520;50.102;20.010;2023-03-23T12:28:53;97621.13;;;19.29;43.11
16806;BME280;8520;50.102;20.010;2023-03-23T12:31:31;97604.63;;;19.62;42.35
16806;BME280;8520;50.102;20.010;2023-03-23T12:34:07;97601.47;;;20.26;42.02
16806;BME280;8520;50.102;20.010;2023-03-23T12:36:47;97617.88;;;19.84;42.19
16806;BME280;8520;50.102;20.010;2023-03-23T12:39:48;97613.78;;;19.85;42.62
16806;BME280;8520;50.102;20.010;2023-03-23T12:42:21;97614.31;;;19.53;43.16
16806;BME280;8520;50.102;20.010;2023-03-23T12:44:55;97613.75;;;19.47;43.56
16806;BME280;8520;50.102;20.010;2023-03-23T12:47:40;97614.06;;;19.36;43.52
16806;BME280;8520;50.102;20.010;2023-03-23T12:50:14;97612.69;;;19.06;44.34
16806;BME280;8520;50.102;20.010;2023-03-23T12:52:48;97622.06;;;19.24;44.13
16806;BME280;8520;50.102;20.010;2023-03-23T12:55:21;97601.38;;;19.27;44.25
16806;BME280;8520;50.102;20.010;2023-03-23T12:57:54;97617.69;;;19.90;43.54
16806;BME280;8520;50.102;20.010;2023-03-23T13:00:28;97614.91;;;19.59;44.03
16806;BME280;8520;50.102;20.010;2023-03-23T13:03:02;97609.84;;;20.19;43.33
16806;BME280;8520;50.102;20.010;2023-03-23T13:05:44;97637.47;;;19.61;44.08
16806;BME280;8520;50.102;20.010;2023-03-23T13:08:23;97637.66;;;19.04;45.06
16806;BME280;8520;50.102;20.010;2023-03-23T13:10:55;97628.69;;;19.57;44.37
16806;BME280;8520;50.102;20.010;2023-03-23T13:13:39;97610.13;;;19.24;44.81
16806;BME280;8520;50.102;20.010;2023-03-23T13:16:11;97619.28;;;19.24;44.94
16806;BME280;8520;50.102;20.010;2023-03-23T13:18:48;97618.84;;;19.05;45.21
16806;BME280;8520;50.102;20.010;2023-03-23T13:21:20;97604.50;;;19.16;45.21
16806;BME280;8520;50.102;20.010;2023-03-23T13:23:54;97615.00;;;19.31;45.51
16806;BME280;8520;50.102;20.010;2023-03-23T13:26:24;97613.19;;;19.49;44.89
16806;BME280;8520;50.102;20.010;2023-03-23T13:28:57;97605.00;;;19.58;44.89
16806;BME280;8520;50.102;20.010;2023-03-23T13:31:29;97620.97;;;18.83;45.96
16806;BME280;8520;50.102;20.010;2023-03-23T13:34:04;97621.69;;;19.28;45.79
16806;BME280;8520;50.102;20.010;2023-03-23T13:36:37;97629.06;;;19.02;46.10
16806;BME280;8520;50.102;20.010;2023-03-23T13:39:06;97614.63;;;18.83;46.50